Time;durP1;ratioP1;P1;durP2;ratioP2;P2;SDS_P1;SDS_P2;PMS_P1;PMS_P2;Temp;Humidity;BMP_temperature;BMP_pressure;BME280_temperature;BME280_humidity;BME280_pressure;Samples;Min_cycle;Max_cycle;Signal;HPM_P1;HPM_P2
2023/12/21 00:00:59;;;;;;;3.75;2.83;;;5.80;99.90;;;;;;4922633;29;20186;-86
2023/12/21 00:03:25;;;;;;;4.78;3.00;;;5.70;99.90;;;;;;4923045;29;20174;-86
2023/12/21 00:05:51;;;;;;;4.18;2.85;;;5.70;99.90;;;;;;4922145;29;20182;-85
2023/12/21 00:08:16;;;;;;;5.38;2.80;;;5.70;99.90;;;;;;4922003;29;20194;-86
2023/12/21 00:10:42;;;;;;;2.75;2.55;;;5.70;99.90;;;;;;4922325;29;20178;-86
2023/12/21 00:13:08;;;;;;;5.32;2.30;;;5.80;99.90;;;;;;4922295;29;20221;-86
2023/12/21 00:15:33;;;;;;;4.28;2.58;;;5.80;99.90;;;;;;4922757;29;20531;-86
2023/12/21 00:17:59;;;;;;;3.10;2.78;;;5.80;99.90;;;;;;4922717;29;20206;-86
2023/12/21 00:20:24;;;;;;;4.88;2.60;;;5.80;99.90;;;;;;4922293;29;20186;-86
2023/12/21 00:22:50;;;;;;;4.13;2.80;;;5.80;99.90;;;;;;4921777;29;20218;-86
2023/12/21 00:25:15;;;;;;;4.70;2.53;;;5.80;99.90;;;;;;4922056;29;20186;-86
2023/12/21 00:27:41;;;;;;;2.85;2.10;;;5.80;99.90;;;;;;4921642;29;20593;-86
2023/12/21 00:30:07;;;;;;;2.55;2.13;;;5.80;99.90;;;;;;4921982;29;20182;-86
2023/12/21 00:32:33;;;;;;;5.18;2.40;;;5.80;99.90;;;;;;4921503;29;20182;-85
2023/12/21 00:34:59;;;;;;;3.00;2.30;;;5.80;99.90;;;;;;4921387;29;20189;-86
2023/12/21 00:37:24;;;;;;;2.20;2.00;;;5.80;99.90;;;;;;4922456;29;20202;-86
2023/12/21 00:39:50;;;;;;;2.28;1.95;;;5.80;99.90;;;;;;4921828;29;20178;-86
2023/12/21 00:42:16;;;;;;;1.92;1.80;;;5.80;99.90;;;;;;4922680;29;20199;-86
2023/12/21 00:44:42;;;;;;;1.92;1.80;;;5.80;99.90;;;;;;4921273;29;20178;-86
2023/12/21 00:47:08;;;;;;;3.17;1.67;;;5.80;99.90;;;;;;4921452;29;20202;-86
2023/12/21 00:49:34;;;;;;;2.53;1.63;;;5.80;99.90;;;;;;4921326;29;20190;-86
2023/12/21 00:52:00;;;;;;;2.17;1.58;;;5.80;99.90;;;;;;4921441;29;20182;-86
2023/12/21 00:54:25;;;;;;;1.63;1.52;;;5.80;99.90;;;;;;4921228;29;20191;-87
2023/12/21 00:56:51;;;;;;;1.80;1.70;;;5.80;99.90;;;;;;4921097;29;20229;-86
2023/12/21 00:59:17;;;;;;;1.67;1.58;;;5.90;99.90;;;;;;4921908;29;20198;-86
2023/12/21 01:01:43;;;;;;;2.03;1.50;;;5.80;99.90;;;;;;4921109;29;20679;-86
2023/12/21 01:04:08;;;;;;;1.30;1.30;;;5.90;99.90;;;;;;4921149;29;20175;-86
2023/12/21 01:06:36;;;;;;;1.70;1.60;;;5.90;99.90;;;;;;4921307;29;20233;-86
2023/12/21 01:09:05;;;;;;;1.27;1.20;;;5.90;99.90;;;;;;4921007;29;20759;-86
2023/12/21 01:11:30;;;;;;;1.60;1.50;;;5.90;99.90;;;;;;4921727;29;20222;-86
2023/12/21 01:13:56;;;;;;;1.30;1.30;;;5.90;99.90;;;;;;4921241;29;20229;-87
2023/12/21 01:16:21;;;;;;;1.30;1.30;;;5.90;99.90;;;;;;4921064;29;20209;-86
2023/12/21 01:18:47;;;;;;;1.50;1.40;;;6.00;99.90;;;;;;4921007;29;20190;-87
2023/12/21 01:21:13;;;;;;;1.67;1.45;;;6.00;99.90;;;;;;4920948;29;20193;-86
2023/12/21 01:23:38;;;;;;;1.60;1.40;;;6.00;99.90;;;;;;4921074;29;20269;-86
2023/12/21 01:26:04;;;;;;;1.60;1.50;;;6.00;99.90;;;;;;4921806;29;20234;-86
2023/12/21 01:28:30;;;;;;;2.03;1.70;;;6.00;99.90;;;;;;4920688;29;20202;-86
2023/12/21 01:30:56;;;;;;;1.70;1.60;;;6.00;99.90;;;;;;4920662;29;20183;-87
2023/12/21 01:33:21;;;;;;;2.08;1.50;;;6.00;99.90;;;;;;4921267;29;20188;-86
2023/12/21 01:35:47;;;;;;;1.80;1.70;;;6.00;99.90;;;;;;4920852;29;20182;-86
2023/12/21 01:38:12;;;;;;;1.95;1.48;;;6.00;99.90;;;;;;4920381;29;20202;-86
2023/12/21 01:40:38;;;;;;;2.47;1.60;;;6.00;99.90;;;;;;4920488;29;20201;-86
2023/12/21 01:43:03;;;;;;;1.70;1.60;;;6.00;99.90;;;;;;4921191;29;20202;-86
2023/12/21 01:45:29;;;;;;;2.40;1.88;;;6.00;99.90;;;;;;4920347;29;20182;-86
2023/12/21 01:47:55;;;;;;;2.03;1.83;;;6.00;99.90;;;;;;4920674;29;20194;-86
2023/12/21 01:50:21;;;;;;;3.63;1.60;;;6.00;99.90;;;;;;4920292;29;20192;-86
2023/12/21 01:52:47;;;;;;;1.80;1.70;;;6.00;99.90;;;;;;4920350;29;20185;-87
2023/12/21 01:55:15;;;;;;;2.97;1.55;;;6.00;99.90;;;;;;4920547;29;20194;-86
2023/12/21 01:57:41;;;;;;;1.70;1.60;;;6.00;99.90;;;;;;4920968;29;20206;-86
2023/12/21 02:00:07;;;;;;;1.85;1.50;;;6.00;99.90;;;;;;4921040;29;20249;-87
2023/12/21 02:26:58;;;;;;;1.23;1.20;;;6.00;99.90;;;;;;921543;23;21759;-74
2023/12/21 02:29:24;;;;;;;1.75;1.10;;;6.00;99.90;;;;;;4969486;28;20197;-75
2023/12/21 02:31:50;;;;;;;0.80;0.80;;;6.10;99.90;;;;;;4954701;29;20670;-75
2023/12/21 02:34:16;;;;;;;1.27;1.25;;;6.00;99.90;;;;;;4954962;29;20550;-75
2023/12/21 02:36:41;;;;;;;0.88;0.88;;;6.00;99.90;;;;;;4951673;29;20316;-75
2023/12/21 02:39:07;;;;;;;1.10;1.00;;;6.00;99.90;;;;;;4936502;29;20229;-75
2023/12/21 02:41:32;;;;;;;0.85;0.77;;;6.00;99.90;;;;;;4935576;29;20304;-75
2023/12/21 02:43:58;;;;;;;0.93;0.93;;;6.00;99.90;;;;;;4935855;29;20210;-75
2023/12/21 02:46:26;;;;;;;0.80;0.80;;;6.10;99.90;;;;;;4935535;29;20202;-75
2023/12/21 02:48:52;;;;;;;1.65;0.80;;;6.00;99.90;;;;;;4936075;29;20258;-75
2023/12/21 02:51:17;;;;;;;1.00;1.00;;;6.00;99.90;;;;;;4935950;29;20182;-75
2023/12/21 02:53:43;;;;;;;1.05;0.95;;;6.00;99.90;;;;;;4951129;29;20525;-75
2023/12/21 02:56:08;;;;;;;0.73;0.73;;;6.00;99.90;;;;;;4935304;29;20200;-75
2023/12/21 02:58:34;;;;;;;0.95;0.90;;;6.10;99.90;;;;;;4950665;29;20178;-75
2023/12/21 03:01:01;;;;;;;0.90;0.90;;;6.10;99.90;;;;;;4935869;29;20256;-75
2023/12/21 03:03:26;;;;;;;0.77;0.77;;;6.10;99.90;;;;;;4935981;29;20210;-75
2023/12/21 03:05:52;;;;;;;1.13;0.80;;;6.10;99.90;;;;;;4934929;29;20221;-75
2023/12/21 03:08:18;;;;;;;0.70;0.70;;;6.10;99.90;;;;;;4935057;29;20174;-75
2023/12/21 03:10:43;;;;;;;0.60;0.60;;;6.10;99.90;;;;;;4935151;29;20174;-75
2023/12/21 03:13:09;;;;;;;1.58;0.77;;;6.10;99.90;;;;;;4935034;29;20554;-75
2023/12/21 03:15:34;;;;;;;0.50;0.50;;;6.10;99.90;;;;;;4935725;29;20194;-75
2023/12/21 03:18:00;;;;;;;0.85;0.85;;;6.10;99.90;;;;;;4935202;29;20210;-75
2023/12/21 03:20:25;;;;;;;0.50;0.50;;;6.20;99.90;;;;;;4935120;29;20206;-75
2023/12/21 03:22:51;;;;;;;0.60;0.60;;;6.20;99.90;;;;;;4934877;29;20198;-75
2023/12/21 03:25:16;;;;;;;0.60;0.60;;;6.20;99.90;;;;;;4934926;29;20186;-75
2023/12/21 03:27:42;;;;;;;0.50;0.50;;;6.20;99.90;;;;;;4936056;29;20237;-75
2023/12/21 03:30:08;;;;;;;0.70;0.63;;;6.20;99.90;;;;;;4934861;29;20174;-75
2023/12/21 03:32:35;;;;;;;0.50;0.50;;;6.20;99.90;;;;;;4936028;29;20183;-75
2023/12/21 03:35:01;;;;;;;0.50;0.50;;;6.20;99.90;;;;;;4951744;29;20568;-75
2023/12/21 03:37:28;;;;;;;0.40;0.40;;;6.20;99.90;;;;;;4934630;29;20238;-75
2023/12/21 03:39:55;;;;;;;0.40;0.40;;;6.20;99.90;;;;;;4936325;29;20182;-75
2023/12/21 03:42:21;;;;;;;0.50;0.50;;;6.20;99.90;;;;;;4935888;29;20203;-75
2023/12/21 03:44:47;;;;;;;0.47;0.47;;;6.20;99.90;;;;;;4935339;29;20186;-75
2023/12/21 03:47:13;;;;;;;0.40;0.40;;;6.20;99.90;;;;;;4935119;29;20206;-75
2023/12/21 03:49:39;;;;;;;0.50;0.50;;;6.20;99.90;;;;;;4936110;29;20174;-75
2023/12/21 03:52:05;;;;;;;0.50;0.40;;;6.20;99.90;;;;;;4934945;29;20185;-75
2023/12/21 03:54:31;;;;;;;0.52;0.30;;;6.20;99.90;;;;;;4934631;29;20196;-75
2023/12/21 03:56:56;;;;;;;2.15;0.47;;;6.20;99.90;;;;;;4934520;29;20300;-75
2023/12/21 03:59:22;;;;;;;0.60;0.60;;;6.20;99.90;;;;;;4931792;29;20270;-75
2023/12/21 04:01:47;;;;;;;0.55;0.50;;;6.20;99.90;;;;;;4931373;29;20210;-75
2023/12/21 04:04:13;;;;;;;0.30;0.30;;;6.20;99.90;;;;;;4931483;29;20190;-75
2023/12/21 04:06:38;;;;;;;0.65;0.40;;;6.20;99.90;;;;;;4931951;29;20210;-75
2023/12/21 04:09:04;;;;;;;0.40;0.40;;;6.30;99.90;;;;;;4915880;29;20555;-75
2023/12/21 04:11:29;;;;;;;7.45;6.78;;;6.20;99.90;;;;;;4933194;29;20191;-75
2023/12/21 04:13:55;;;;;;;10.93;9.82;;;6.20;99.90;;;;;;4920188;29;20322;-75
2023/12/21 04:16:20;;;;;;;25.23;22.40;;;6.30;99.90;;;;;;4935214;29;20205;-75
2023/12/21 04:18:46;;;;;;;38.75;31.38;;;6.30;99.90;;;;;;4920000;29;20190;-75
2023/12/21 04:21:12;;;;;;;9.63;8.73;;;6.20;99.90;;;;;;4934862;29;20190;-75
2023/12/21 04:23:37;;;;;;;15.38;13.90;;;6.20;99.90;;;;;;4919965;29;20274;-75
2023/12/21 04:26:03;;;;;;;10.25;9.35;;;6.20;99.90;;;;;;4918781;29;20231;-75
2023/12/21 04:28:28;;;;;;;2.72;2.63;;;6.20;99.90;;;;;;4920285;29;20243;-75
2023/12/21 04:30:54;;;;;;;1.70;1.60;;;6.20;99.90;;;;;;4934686;29;20182;-75
2023/12/21 04:33:19;;;;;;;1.90;1.80;;;6.20;99.90;;;;;;4919769;29;20552;-75
2023/12/21 04:35:45;;;;;;;1.30;1.30;;;6.20;99.90;;;;;;4934385;29;20293;-75
2023/12/21 04:38:12;;;;;;;1.88;1.25;;;6.20;99.90;;;;;;4935074;29;20185;-75
2023/12/21 04:40:38;;;;;;;1.10;1.10;;;6.20;99.90;;;;;;4934646;29;20183;-75
2023/12/21 04:43:05;;;;;;;1.33;1.30;;;6.20;99.90;;;;;;4934586;29;20725;-75
2023/12/21 04:45:31;;;;;;;1.10;1.10;;;6.30;99.90;;;;;;4934019;29;20314;-75
2023/12/21 04:47:56;;;;;;;0.82;0.82;;;6.30;99.90;;;;;;4934107;29;20273;-75
2023/12/21 04:50:22;;;;;;;1.20;1.20;;;6.30;99.90;;;;;;4918606;29;20221;-75
2023/12/21 04:52:49;;;;;;;0.90;0.90;;;6.30;99.90;;;;;;4934094;29;20219;-75
2023/12/21 04:55:15;;;;;;;1.23;1.23;;;6.30;99.90;;;;;;4934839;29;20183;-75
2023/12/21 04:57:41;;;;;;;0.90;0.90;;;6.30;99.90;;;;;;4934204;29;20571;-75
2023/12/21 05:00:07;;;;;;;1.00;1.00;;;6.30;99.90;;;;;;4934247;29;20187;-74
2023/12/21 05:02:33;;;;;;;0.70;0.70;;;6.30;99.90;;;;;;4933750;29;20219;-74
2023/12/21 05:04:59;;;;;;;0.93;0.93;;;6.30;99.90;;;;;;4934163;29;20214;-75
2023/12/21 05:07:25;;;;;;;0.70;0.70;;;6.40;99.90;;;;;;4934043;29;20673;-75
2023/12/21 05:09:51;;;;;;;0.80;0.80;;;6.40;99.90;;;;;;4934261;29;20178;-75
2023/12/21 05:12:17;;;;;;;0.80;0.80;;;6.40;99.90;;;;;;4934980;29;20183;-75
2023/12/21 05:14:42;;;;;;;0.90;0.90;;;6.40;99.90;;;;;;4918217;29;20661;-75
2023/12/21 05:17:08;;;;;;;0.93;0.93;;;6.40;99.90;;;;;;4918266;29;20241;-75
2023/12/21 05:19:34;;;;;;;0.82;0.82;;;6.40;99.90;;;;;;4934874;29;20189;-75
2023/12/21 05:22:00;;;;;;;1.90;0.90;;;6.40;99.90;;;;;;4918836;29;20210;-77
2023/12/21 05:24:25;;;;;;;1.00;1.00;;;6.50;99.90;;;;;;4919863;29;20183;-76
2023/12/21 05:26:51;;;;;;;1.38;1.30;;;6.40;99.90;;;;;;4934415;29;20191;-74
2023/12/21 05:29:16;;;;;;;1.70;1.30;;;6.50;99.90;;;;;;4935038;29;20175;-76
2023/12/21 05:31:42;;;;;;;1.90;1.75;;;6.40;99.90;;;;;;4934417;29;20186;-76
2023/12/21 05:34:08;;;;;;;1.30;1.20;;;6.50;99.90;;;;;;4934945;29;20299;-76
2023/12/21 05:36:34;;;;;;;1.75;1.00;;;6.50;99.90;;;;;;4934179;29;20241;-75
2023/12/21 05:39:00;;;;;;;2.05;1.30;;;6.50;99.90;;;;;;4933756;29;20219;-75
2023/12/21 05:41:26;;;;;;;1.02;1.02;;;6.50;99.90;;;;;;4918613;29;20345;-75
2023/12/21 05:43:51;;;;;;;0.90;0.90;;;6.50;99.90;;;;;;4917288;29;20657;-76
2023/12/21 05:46:17;;;;;;;1.85;0.90;;;6.50;99.90;;;;;;4933980;29;20199;-76
2023/12/21 05:48:43;;;;;;;1.10;1.10;;;6.50;99.90;;;;;;4933398;29;20179;-76
2023/12/21 05:51:08;;;;;;;0.90;0.90;;;6.50;99.90;;;;;;4918495;29;20179;-76
2023/12/21 05:53:34;;;;;;;1.20;0.90;;;6.60;99.90;;;;;;4933890;29;20183;-75
2023/12/21 05:56:01;;;;;;;0.90;0.90;;;6.60;99.90;;;;;;4932908;29;20195;-75
2023/12/21 05:58:27;;;;;;;1.27;0.70;;;6.60;99.90;;;;;;4934084;29;20179;-76
2023/12/21 06:00:53;;;;;;;0.90;0.90;;;6.60;99.90;;;;;;4933008;29;20205;-77
2023/12/21 06:03:18;;;;;;;2.10;2.00;;;6.60;99.90;;;;;;4932792;29;20250;-78
2023/12/21 06:05:44;;;;;;;0.85;0.85;;;6.60;99.90;;;;;;4933444;29;20207;-76
2023/12/21 06:08:09;;;;;;;0.98;0.90;;;6.60;99.90;;;;;;4917203;29;20206;-76
2023/12/21 06:10:35;;;;;;;0.55;0.55;;;6.60;99.90;;;;;;4932636;29;20179;-76
2023/12/21 06:13:00;;;;;;;0.80;0.80;;;6.60;99.90;;;;;;4933726;29;20182;-76
2023/12/21 06:15:26;;;;;;;0.75;0.75;;;6.60;99.90;;;;;;4917128;29;20179;-74
2023/12/21 06:17:51;;;;;;;0.60;0.60;;;6.60;99.90;;;;;;4916982;29;20653;-75
2023/12/21 06:20:17;;;;;;;0.60;0.60;;;6.60;99.90;;;;;;4932948;29;20179;-75
2023/12/21 06:22:43;;;;;;;151.13;47.33;;;6.60;99.90;;;;;;4932818;29;20207;-75
2023/12/21 06:25:09;;;;;;;13.10;4.60;;;6.60;99.90;;;;;;4917141;29;20191;-75
2023/12/21 06:27:34;;;;;;;5.68;2.63;;;6.50;99.90;;;;;;4932759;29;20218;-75
2023/12/21 06:30:00;;;;;;;2.75;1.60;;;6.50;99.90;;;;;;4935576;29;20318;-76
2023/12/21 06:32:25;;;;;;;1.10;1.10;;;6.60;99.90;;;;;;4936239;29;20279;-77
2023/12/21 06:34:51;;;;;;;1.23;1.10;;;6.50;99.90;;;;;;4935455;29;20189;-77
2023/12/21 06:37:17;;;;;;;0.90;0.90;;;6.50;99.90;;;;;;4935438;29;20205;-76
2023/12/21 06:39:42;;;;;;;0.90;0.90;;;6.60;99.90;;;;;;4935604;29;20182;-76
2023/12/21 06:42:08;;;;;;;0.88;0.88;;;6.50;99.90;;;;;;4935184;29;20234;-76
2023/12/21 06:44:33;;;;;;;0.80;0.80;;;6.50;99.90;;;;;;4935640;29;20218;-77
2023/12/21 06:46:59;;;;;;;0.73;0.73;;;6.60;99.90;;;;;;4935464;29;20202;-76
2023/12/21 06:49:24;;;;;;;11.65;7.40;;;6.50;99.90;;;;;;4936624;29;20222;-76
2023/12/21 06:51:50;;;;;;;17.60;13.00;;;6.60;99.90;;;;;;4936277;29;20182;-76
2023/12/21 06:54:20;;;;;;;18.17;12.18;;;6.60;99.90;;;;;;4936297;29;20301;-76
2023/12/21 06:56:45;;;;;;;44.85;25.88;;;6.60;99.90;;;;;;4935006;29;20234;-76
2023/12/21 06:59:12;;;;;;;33.03;20.42;;;6.60;99.90;;;;;;4935766;29;20192;-76
2023/12/21 07:01:37;;;;;;;29.35;18.02;;;6.70;99.90;;;;;;4936284;29;20252;-76
2023/12/21 07:04:03;;;;;;;81.28;44.47;;;6.70;99.90;;;;;;4935813;29;20201;-76
2023/12/21 07:06:28;;;;;;;39.58;23.02;;;6.70;99.90;;;;;;4934963;29;20205;-76
2023/12/21 07:08:54;;;;;;;56.67;32.70;;;6.70;99.90;;;;;;4935535;29;20189;-77
2023/12/21 07:11:20;;;;;;;23.25;15.23;;;6.70;99.90;;;;;;4935618;29;20182;-77
2023/12/21 07:13:46;;;;;;;19.95;14.15;;;6.70;99.90;;;;;;4935445;29;20276;-76
2023/12/21 07:16:11;;;;;;;15.77;14.38;;;6.70;99.90;;;;;;4935548;29;20194;-76
2023/12/21 07:18:37;;;;;;;13.20;12.15;;;6.70;99.90;;;;;;4935087;29;20221;-76
2023/12/21 07:21:04;;;;;;;5.05;4.65;;;6.70;99.90;;;;;;4935042;29;20688;-76
2023/12/21 07:23:30;;;;;;;2.00;1.90;;;6.70;99.90;;;;;;4934761;29;20206;-76
2023/12/21 07:25:56;;;;;;;3.65;2.90;;;6.70;99.90;;;;;;4935741;29;20199;-76
2023/12/21 07:28:22;;;;;;;3.03;2.85;;;6.70;99.90;;;;;;4935035;29;20194;-76
2023/12/21 07:30:48;;;;;;;1.60;1.60;;;6.70;99.90;;;;;;4935231;29;20178;-76
2023/12/21 07:33:14;;;;;;;2.28;2.17;;;6.60;99.90;;;;;;4935644;29;20221;-76
2023/12/21 07:35:39;;;;;;;2.15;2.05;;;6.70;99.90;;;;;;4934542;29;20725;-76
2023/12/21 07:38:06;;;;;;;2.20;2.10;;;6.70;99.90;;;;;;4934788;29;20273;-76
2023/12/21 07:40:32;;;;;;;2.22;1.60;;;6.70;99.90;;;;;;4935042;29;20649;-76
2023/12/21 07:42:58;;;;;;;3.70;1.27;;;6.70;99.90;;;;;;4934963;29;20222;-76
2023/12/21 07:45:24;;;;;;;1.27;1.20;;;6.70;99.90;;;;;;4937265;29;20182;-76
2023/12/21 07:47:49;;;;;;;1.38;1.27;;;6.70;99.90;;;;;;4938365;29;20249;-76
2023/12/21 07:50:15;;;;;;;6.43;6.03;;;6.80;99.90;;;;;;4938470;29;20565;-76
2023/12/21 07:52:41;;;;;;;3.08;2.88;;;6.70;99.90;;;;;;4939572;29;20188;-76
2023/12/21 07:55:07;;;;;;;1.50;1.50;;;6.70;99.90;;;;;;4939173;29;20269;-76
2023/12/21 07:57:33;;;;;;;1.30;1.30;;;6.70;99.90;;;;;;4939705;29;20213;-76
2023/12/21 07:59:59;;;;;;;2.15;1.48;;;6.80;99.90;;;;;;4939089;29;20182;-76
2023/12/21 08:02:24;;;;;;;1.60;1.50;;;6.80;99.90;;;;;;4938720;29;20202;-76
2023/12/21 08:04:50;;;;;;;3.03;1.05;;;6.80;99.90;;;;;;4938487;29;20182;-75
2023/12/21 08:07:16;;;;;;;0.77;0.77;;;6.80;99.90;;;;;;4938328;29;20292;-75
2023/12/21 08:09:42;;;;;;;1.10;1.10;;;6.80;99.90;;;;;;4938859;29;20638;-76
2023/12/21 08:12:08;;;;;;;0.90;0.90;;;6.80;99.90;;;;;;4938076;29;20189;-76
2023/12/21 08:14:37;;;;;;;1.20;1.10;;;6.80;99.90;;;;;;4938774;29;20186;-75
2023/12/21 08:17:09;;;;;;;0.90;0.90;;;6.90;99.90;;;;;;4938257;29;20217;-76
2023/12/21 08:19:38;;;;;;;1.05;1.05;;;6.90;99.90;;;;;;4937924;29;20214;-77
2023/12/21 08:22:04;;;;;;;1.42;1.42;;;6.90;99.90;;;;;;4938060;29;20260;-75
2023/12/21 08:24:31;;;;;;;2.10;2.00;;;6.90;99.90;;;;;;4938146;29;20189;-75
2023/12/21 08:26:56;;;;;;;1.40;1.30;;;6.90;99.90;;;;;;4939104;29;20615;-75
2023/12/21 08:29:22;;;;;;;1.88;1.40;;;7.00;99.90;;;;;;4939406;29;20177;-76
2023/12/21 08:31:48;;;;;;;2.22;1.75;;;7.00;99.90;;;;;;4938481;29;20178;-76
2023/12/21 08:34:13;;;;;;;0.73;0.73;;;7.00;99.90;;;;;;4937620;29;20178;-76
2023/12/21 08:36:39;;;;;;;2.00;1.90;;;7.10;99.90;;;;;;4938149;29;20273;-76
2023/12/21 08:39:05;;;;;;;1.50;1.40;;;7.10;99.90;;;;;;4937474;29;20181;-76
2023/12/21 08:41:30;;;;;;;1.00;1.00;;;7.10;99.90;;;;;;4937457;29;20186;-76
2023/12/21 08:43:56;;;;;;;1.00;1.00;;;7.10;99.90;;;;;;4938274;29;20206;-76
2023/12/21 08:46:22;;;;;;;1.10;1.10;;;7.10;99.90;;;;;;4938171;29;20195;-76
2023/12/21 08:48:48;;;;;;;1.30;1.30;;;7.10;99.90;;;;;;4937268;29;20261;-76
2023/12/21 08:51:14;;;;;;;2.47;0.90;;;7.10;99.90;;;;;;4938511;29;20186;-76
2023/12/21 08:53:40;;;;;;;0.73;0.73;;;7.10;99.90;;;;;;4938488;29;20174;-76
2023/12/21 08:56:06;;;;;;;0.50;0.50;;;7.10;99.90;;;;;;4937392;29;20206;-76
2023/12/21 08:58:32;;;;;;;0.63;0.50;;;7.20;99.90;;;;;;4937001;29;20189;-76
2023/12/21 09:00:58;;;;;;;1.75;0.60;;;7.20;99.90;;;;;;4937264;29;20272;-76
2023/12/21 09:03:24;;;;;;;0.50;0.50;;;7.10;99.90;;;;;;4937968;29;20213;-76
2023/12/21 09:05:50;;;;;;;1.88;0.70;;;7.20;99.90;;;;;;4937432;29;20202;-76
2023/12/21 09:08:16;;;;;;;1.23;0.75;;;7.20;99.90;;;;;;4938030;29;20174;-76
2023/12/21 09:10:42;;;;;;;2.95;2.58;;;7.20;99.90;;;;;;4937740;29;20329;-76
2023/12/21 09:13:08;;;;;;;0.90;0.90;;;7.20;99.90;;;;;;4937646;29;20234;-76
2023/12/21 09:15:36;;;;;;;0.75;0.70;;;7.20;99.90;;;;;;4937089;29;20196;-75
2023/12/21 09:18:03;;;;;;;0.80;0.80;;;7.30;99.90;;;;;;4936932;29;20638;-75
2023/12/21 09:20:29;;;;;;;0.80;0.80;;;7.30;99.90;;;;;;4936806;29;20270;-75
2023/12/21 09:22:54;;;;;;;0.50;0.50;;;7.30;99.90;;;;;;4936734;29;20239;-74
2023/12/21 09:25:20;;;;;;;0.93;0.88;;;7.30;99.90;;;;;;4936745;29;20649;-74
2023/12/21 09:27:46;;;;;;;1.48;0.75;;;7.30;99.90;;;;;;4936730;29;20700;-75
2023/12/21 09:30:12;;;;;;;0.75;0.75;;;7.30;99.90;;;;;;4937687;29;20182;-75
2023/12/21 09:32:40;;;;;;;0.77;0.77;;;7.40;99.90;;;;;;4937815;29;20183;-74
2023/12/21 09:35:06;;;;;;;1.00;1.00;;;7.40;99.90;;;;;;4937465;29;20186;-75
2023/12/21 09:37:33;;;;;;;1.10;1.10;;;7.40;99.90;;;;;;4936496;29;20285;-75
2023/12/21 09:39:58;;;;;;;1.10;1.10;;;7.50;99.90;;;;;;4936998;29;20224;-75
2023/12/21 09:42:27;;;;;;;0.80;0.80;;;7.50;99.90;;;;;;4936301;29;20237;-75
2023/12/21 09:44:53;;;;;;;0.80;0.80;;;7.50;99.90;;;;;;4936409;29;20205;-75
2023/12/21 09:47:22;;;;;;;0.40;0.40;;;7.40;99.90;;;;;;4936630;29;20225;-75
2023/12/21 09:49:50;;;;;;;0.70;0.70;;;7.40;99.90;;;;;;4936866;29;20217;-75
2023/12/21 09:52:20;;;;;;;1.00;1.00;;;7.50;99.90;;;;;;4937307;29;20182;-75
2023/12/21 09:54:49;;;;;;;1.33;1.15;;;7.50;99.90;;;;;;4936737;29;20187;-75
2023/12/21 09:57:15;;;;;;;0.85;0.80;;;7.50;99.90;;;;;;4936724;29;20242;-76
2023/12/21 09:59:41;;;;;;;0.77;0.77;;;7.50;99.90;;;;;;4936021;29;20185;-76
2023/12/21 10:02:12;;;;;;;1.00;1.00;;;7.50;99.90;;;;;;4936395;29;20198;-76
2023/12/21 10:04:44;;;;;;;0.57;0.57;;;7.50;99.90;;;;;;4936491;29;20178;-75
2023/12/21 10:07:14;;;;;;;0.30;0.30;;;7.50;99.90;;;;;;4936233;29;20202;-75
2023/12/21 10:09:40;;;;;;;0.88;0.88;;;7.50;99.90;;;;;;4934999;29;20186;-74
2023/12/21 10:12:08;;;;;;;0.55;0.55;;;7.40;99.90;;;;;;4935873;29;20186;-74
2023/12/21 10:14:34;;;;;;;0.60;0.60;;;7.40;99.90;;;;;;4936794;29;20234;-75
2023/12/21 10:17:01;;;;;;;0.47;0.47;;;7.40;99.90;;;;;;4936608;29;20653;-75
2023/12/21 10:19:27;;;;;;;0.40;0.40;;;7.40;99.90;;;;;;4936002;29;20657;-75
2023/12/21 10:21:53;;;;;;;0.50;0.50;;;7.40;99.90;;;;;;4935621;29;20205;-75
2023/12/21 10:24:19;;;;;;;1.17;0.55;;;7.40;99.90;;;;;;4935628;29;20178;-75
2023/12/21 10:26:47;;;;;;;0.50;0.50;;;7.40;99.90;;;;;;4935759;29;20193;-75
2023/12/21 10:29:16;;;;;;;0.80;0.60;;;7.30;99.90;;;;;;4936376;29;20620;-75
2023/12/21 10:31:46;;;;;;;0.50;0.50;;;7.30;99.90;;;;;;4935580;29;20184;-74
2023/12/21 10:34:12;;;;;;;0.90;0.90;;;7.40;99.90;;;;;;4935935;29;20237;-75
2023/12/21 10:36:45;;;;;;;0.77;0.77;;;7.40;99.90;;;;;;4935934;29;20208;-75
2023/12/21 10:39:12;;;;;;;1.00;1.00;;;7.40;99.90;;;;;;4935629;29;20185;-76
2023/12/21 10:41:47;;;;;;;1.10;1.10;;;7.30;99.90;;;;;;4936543;29;20257;-76
2023/12/21 10:44:15;;;;;;;1.10;1.10;;;7.30;99.90;;;;;;4936231;29;20221;-77
2023/12/21 10:46:41;;;;;;;0.80;0.80;;;7.30;99.90;;;;;;4936478;29;20245;-76
2023/12/21 10:49:11;;;;;;;1.00;1.00;;;7.30;99.90;;;;;;4935349;29;20205;-75
2023/12/21 10:51:37;;;;;;;0.82;0.82;;;7.30;99.90;;;;;;4936423;29;20166;-75
2023/12/21 10:54:10;;;;;;;1.17;1.17;;;7.30;99.90;;;;;;4936427;29;20252;-75
2023/12/21 10:56:38;;;;;;;0.75;0.75;;;7.40;99.90;;;;;;4935563;29;20210;-75
2023/12/21 10:59:08;;;;;;;0.93;0.93;;;7.40;99.90;;;;;;4936316;29;20233;-75
2023/12/21 11:01:34;;;;;;;0.98;0.98;;;7.40;99.90;;;;;;4935308;29;20174;-75
2023/12/21 11:04:01;;;;;;;0.70;0.70;;;7.40;99.90;;;;;;4935916;29;20182;-75
2023/12/21 11:06:31;;;;;;;0.57;0.35;;;7.50;99.90;;;;;;4935069;29;20198;-75
2023/12/21 11:08:59;;;;;;;1.70;1.60;;;7.40;99.90;;;;;;4935847;29;20605;-75
2023/12/21 11:11:26;;;;;;;2.70;2.50;;;7.50;99.90;;;;;;4935025;29;20217;-75
2023/12/21 11:13:56;;;;;;;2.03;1.80;;;7.50;99.90;;;;;;4935060;29;20183;-75
2023/12/21 11:16:44;;;;;;;1.45;1.40;;;7.50;99.90;;;;;;4935789;29;20197;-75
2023/12/21 11:19:13;;;;;;;0.50;0.50;;;7.60;99.90;;;;;;4934977;29;20257;-75
2023/12/21 11:21:39;;;;;;;1.25;0.98;;;7.60;99.90;;;;;;4940289;29;20182;-75
2023/12/21 11:24:05;;;;;;;2.00;1.77;;;7.60;99.90;;;;;;4940339;29;20625;-76
2023/12/21 11:26:31;;;;;;;0.60;0.60;;;7.60;99.90;;;;;;4939544;29;20528;-76
2023/12/21 11:29:05;;;;;;;0.90;0.90;;;7.60;99.90;;;;;;4938774;29;20245;-76
2023/12/21 11:31:38;;;;;;;0.63;0.40;;;7.70;99.90;;;;;;4939698;29;20205;-76
2023/12/21 11:34:11;;;;;;;0.80;0.80;;;7.70;99.90;;;;;;4938734;29;20637;-76
2023/12/21 11:36:37;;;;;;;1.10;1.10;;;7.70;99.90;;;;;;4939401;29;20198;-76
2023/12/21 11:39:08;;;;;;;0.82;0.82;;;7.70;99.90;;;;;;4939651;29;20183;-76
2023/12/21 11:41:34;;;;;;;0.90;0.90;;;7.80;99.90;;;;;;4938560;29;20262;-76
2023/12/21 11:44:02;;;;;;;0.80;0.80;;;7.80;99.90;;;;;;4939068;29;20286;-76
2023/12/21 11:46:30;;;;;;;0.85;0.85;;;7.80;99.90;;;;;;4938756;29;20194;-76
2023/12/21 11:48:56;;;;;;;1.17;1.17;;;7.90;99.90;;;;;;4938413;29;20202;-76
2023/12/21 11:51:22;;;;;;;1.05;0.98;;;7.90;99.90;;;;;;4939656;29;20683;-76
2023/12/21 11:53:47;;;;;;;0.63;0.63;;;7.90;99.90;;;;;;4939358;29;20178;-76
2023/12/21 11:56:16;;;;;;;0.52;0.47;;;7.90;99.90;;;;;;4939029;29;20205;-76
2023/12/21 11:58:43;;;;;;;0.47;0.30;;;7.90;99.90;;;;;;4939359;29;20178;-76
2023/12/21 12:01:22;;;;;;;14.52;5.97;;;8.00;99.90;;;;;;4939596;29;20522;-76
2023/12/21 12:03:47;;;;;;;6.30;1.85;;;8.00;99.90;;;;;;4938932;29;20222;-76
2023/12/21 12:06:14;;;;;;;68.13;24.45;;;8.00;99.90;;;;;;4938861;29;20218;-77
2023/12/21 12:08:40;;;;;;;3.25;1.50;;;8.00;99.90;;;;;;4939020;29;20190;-76
2023/12/21 12:11:06;;;;;;;5.20;2.55;;;8.10;99.90;;;;;;4939390;29;20186;-83
2023/12/21 12:13:33;;;;;;;0.52;0.30;;;8.10;99.90;;;;;;4940926;29;20170;-76
2023/12/21 13:05:33;;;;;;;0.50;0.50;;;8.50;99.90;;;;;;4955929;28;20237;-77
2023/12/21 13:07:58;;;;;;;0.10;0.10;;;8.50;99.90;;;;;;4947537;29;20288;-77
2023/12/21 13:10:25;;;;;;;1.15;0.45;;;8.50;99.90;;;;;;4945910;29;20205;-76
2023/12/21 13:12:50;;;;;;;0.40;0.40;;;8.50;99.90;;;;;;4948101;29;20221;-76
2023/12/21 13:15:19;;;;;;;0.45;0.45;;;8.50;99.90;;;;;;4957394;29;20178;-76
2023/12/21 13:17:44;;;;;;;0.30;0.30;;;8.50;99.90;;;;;;4942259;29;20683;-76
2023/12/21 13:20:11;;;;;;;0.47;0.47;;;8.50;99.90;;;;;;4939712;29;20229;-76
2023/12/21 13:22:37;;;;;;;0.30;0.30;;;8.50;99.90;;;;;;4947017;29;20213;-76
2023/12/21 13:25:03;;;;;;;1.17;0.95;;;8.50;99.90;;;;;;4948234;29;20660;-80
2023/12/21 13:27:29;;;;;;;10.77;9.90;;;8.50;99.90;;;;;;4938127;29;20636;-76
2023/12/21 13:29:54;;;;;;;4.53;4.22;;;8.40;99.90;;;;;;4940950;29;20209;-76
2023/12/21 13:32:20;;;;;;;12.65;11.57;;;8.40;99.90;;;;;;4947536;29;20182;-76
2023/12/21 13:34:47;;;;;;;3.50;3.30;;;8.40;99.90;;;;;;4957216;29;20186;-77
2023/12/21 13:37:12;;;;;;;1.48;1.48;;;8.50;99.90;;;;;;4936083;29;20223;-76
2023/12/21 13:39:38;;;;;;;1.13;1.05;;;8.40;99.90;;;;;;4943480;29;20253;-76
2023/12/21 13:42:04;;;;;;;2.50;2.30;;;8.40;99.90;;;;;;4954808;28;20205;-76
2023/12/21 13:44:30;;;;;;;1.20;1.10;;;8.40;99.90;;;;;;4956143;29;20180;-76
2023/12/21 13:46:56;;;;;;;1.20;1.20;;;8.40;99.90;;;;;;4955077;28;20233;-76
2023/12/21 13:49:26;;;;;;;1.30;1.30;;;8.40;99.90;;;;;;4955297;29;20182;-76
2023/12/21 13:51:52;;;;;;;0.63;0.63;;;8.40;99.90;;;;;;4956379;29;20173;-77
2023/12/21 13:54:18;;;;;;;0.80;0.80;;;8.40;99.90;;;;;;4956385;29;20188;-76
2023/12/21 13:56:45;;;;;;;0.90;0.90;;;8.40;99.90;;;;;;4956793;28;20177;-76
2023/12/21 13:59:11;;;;;;;2.28;1.40;;;8.40;99.90;;;;;;4956478;29;20371;-76
2023/12/21 14:01:36;;;;;;;1.55;1.48;;;8.40;99.90;;;;;;4955510;29;20294;-76
2023/12/21 14:04:03;;;;;;;2.60;2.40;;;8.40;99.90;;;;;;4955266;29;20197;-76